Time;durP1;ratioP1;P1;durP2;ratioP2;P2;SDS_P1;SDS_P2;PMS_P1;PMS_P2;Temp;Humidity;BMP_temperature;BMP_pressure;BME280_temperature;BME280_humidity;BME280_pressure;Samples;Min_cycle;Max_cycle;Signal;HPM_P1;HPM_P2
2022/08/31 00:04:00;;;;;;;8.23;2.40;;;;;;;19.45;100.00;99459.94;5114011;28;20501;-96
2022/08/31 00:06:25;;;;;;;10.75;2.78;;;;;;;19.38;100.00;99460.22;5106615;28;20043;-95
2022/08/31 00:08:51;;;;;;;10.90;2.30;;;;;;;18.92;100.00;99457.31;5095421;28;20062;-94
2022/08/31 00:11:26;;;;;;;8.75;2.42;;;;;;;18.59;100.00;99462.69;5101112;28;20056;-95
2022/08/31 00:13:52;;;;;;;9.20;2.40;;;;;;;18.74;100.00;99454.28;5100270;28;20078;-94
2022/08/31 00:16:21;;;;;;;7.80;2.22;;;;;;;19.09;100.00;99459.41;5099344;28;20024;-96
2022/08/31 00:18:46;;;;;;;7.25;2.00;;;;;;;19.98;100.00;99451.97;5095082;28;20105;-93
2022/08/31 00:21:12;;;;;;;10.18;2.25;;;;;;;19.25;100.00;99457.97;5108651;28;20425;-95
2022/08/31 00:23:37;;;;;;;8.02;2.30;;;;;;;19.21;100.00;99448.41;5103621;28;20049;-93
2022/08/31 00:26:03;;;;;;;7.78;2.28;;;;;;;18.98;100.00;99456.25;5094903;28;20428;-95
2022/08/31 00:28:28;;;;;;;9.65;2.42;;;;;;;19.33;100.00;99452.44;5099432;28;20043;-96
2022/08/31 00:30:54;;;;;;;8.35;2.40;;;;;;;19.36;100.00;99447.03;5106571;28;20022;-95
2022/08/31 00:33:20;;;;;;;7.78;2.40;;;;;;;19.37;100.00;99455.84;5103303;28;20036;-94
2022/08/31 00:35:46;;;;;;;8.75;2.38;;;;;;;19.35;100.00;99450.59;5095994;28;20388;-96
2022/08/31 00:38:13;;;;;;;8.40;2.42;;;;;;;19.76;100.00;99444.78;5093162;28;20024;-96
2022/08/31 00:40:41;;;;;;;7.65;2.17;;;;;;;19.30;100.00;99454.31;5102027;28;20092;-93
2022/08/31 00:43:07;;;;;;;6.97;2.38;;;;;;;19.29;100.00;99453.47;5108330;28;20114;-94
2022/08/31 00:45:32;;;;;;;9.13;2.33;;;;;;;19.23;100.00;99451.88;5101979;28;20518;-95
2022/08/31 00:47:58;;;;;;;8.18;2.55;;;;;;;19.55;100.00;99447.25;5101541;28;20040;-96
2022/08/31 00:50:24;;;;;;;9.57;2.42;;;;;;;19.64;100.00;99456.66;5098538;28;20097;-95
2022/08/31 00:52:55;;;;;;;9.98;2.53;;;;;;;19.37;100.00;99456.72;5091496;28;20479;-96
2022/08/31 00:55:32;;;;;;;6.80;2.38;;;;;;;18.93;100.00;99454.59;5094611;28;20043;-95
2022/08/31 00:58:03;;;;;;;7.65;2.60;;;;;;;18.59;100.00;99450.38;5102004;28;20024;-95
2022/08/31 01:00:29;;;;;;;8.60;2.72;;;;;;;18.92;100.00;99450.22;5102199;28;20027;-93
2022/08/31 01:02:56;;;;;;;8.95;3.35;;;;;;;18.92;100.00;99446.72;5093696;28;21160;-94
2022/08/31 01:05:24;;;;;;;10.40;3.05;;;;;;;18.69;100.00;99450.06;5096750;28;20032;-93
2022/08/31 01:07:51;;;;;;;8.93;2.92;;;;;;;18.64;100.00;99452.84;5092392;28;20024;-93
2022/08/31 01:10:21;;;;;;;9.27;2.70;;;;;;;18.68;100.00;99440.44;5099604;28;20064;-93
2022/08/31 01:12:49;;;;;;;7.32;2.95;;;;;;;18.87;100.00;99444.25;5100027;28;20044;-96
2022/08/31 01:15:15;;;;;;;7.97;3.20;;;;;;;18.82;100.00;99447.91;5094764;28;20038;-93
2022/08/31 01:17:43;;;;;;;9.45;3.17;;;;;;;18.94;100.00;99460.75;5099096;28;20023;-94
2022/08/31 01:20:24;;;;;;;9.18;3.08;;;;;;;18.78;100.00;99452.44;5102483;28;20047;-96
2022/08/31 01:23:15;;;;;;;10.18;2.95;;;;;;;19.08;100.00;99447.97;5102481;28;20036;-96
2022/08/31 01:25:43;;;;;;;10.25;3.40;;;;;;;19.05;100.00;99440.16;5098450;28;20035;-96
2022/08/31 01:28:09;;;;;;;8.63;3.40;;;;;;;18.92;100.00;99444.09;5092886;28;20123;-96
2022/08/31 01:30:39;;;;;;;9.35;3.28;;;;;;;19.40;100.00;99443.38;5092306;28;20797;-95
2022/08/31 01:33:05;;;;;;;9.95;3.42;;;;;;;18.57;100.00;99440.75;5096862;28;20058;-94
2022/08/31 01:35:32;;;;;;;9.25;3.45;;;;;;;18.66;100.00;99440.44;5092417;28;20032;-92
2022/08/31 01:37:58;;;;;;;9.35;3.75;;;;;;;18.69;100.00;99442.13;5099159;28;20032;-94
2022/08/31 01:40:29;;;;;;;11.82;4.32;;;;;;;18.54;100.00;99448.78;5097155;28;20038;-94
2022/08/31 01:42:54;;;;;;;10.27;3.33;;;;;;;18.58;100.00;99440.69;5092311;28;20024;-96
2022/08/31 01:45:20;;;;;;;9.55;3.50;;;;;;;18.31;100.00;99449.47;5095830;28;20028;-95
2022/08/31 01:47:46;;;;;;;9.50;3.72;;;;;;;18.78;100.00;99449.78;5093106;28;20059;-96
2022/08/31 01:50:12;;;;;;;9.13;3.72;;;;;;;18.54;100.00;99446.13;5097459;28;20494;-95
2022/08/31 01:52:37;;;;;;;9.05;3.67;;;;;;;18.52;100.00;99448.81;5088319;28;20019;-96
2022/08/31 01:55:05;;;;;;;10.15;3.95;;;;;;;18.43;100.00;99457.03;5090805;28;20048;-92
2022/08/31 01:57:34;;;;;;;9.93;3.80;;;;;;;18.23;100.00;99453.19;5090133;28;20036;-95
2022/08/31 02:00:03;;;;;;;10.30;3.78;;;;;;;18.55;100.00;99443.44;5099889;28;20057;-94
2022/08/31 02:02:28;;;;;;;9.70;3.40;;;;;;;18.56;100.00;99450.44;5088341;28;20790;-95
2022/08/31 02:04:54;;;;;;;10.40;3.63;;;;;;;18.66;100.00;99451.00;5101052;28;20069;-95
2022/08/31 02:07:22;;;;;;;9.07;3.60;;;;;;;18.71;100.00;99449.09;5103600;28;20023;-94
2022/08/31 02:09:48;;;;;;;10.40;3.47;;;;;;;18.68;100.00;99448.34;5101334;28;20028;-95
2022/08/31 02:12:14;;;;;;;9.77;3.85;;;;;;;18.82;100.00;99453.22;5106080;28;20035;-93
2022/08/31 02:14:39;;;;;;;8.43;3.10;;;;;;;18.90;100.00;99454.72;5100884;28;20028;-95
2022/08/31 02:17:05;;;;;;;9.02;3.28;;;;;;;18.39;100.00;99448.31;5095585;28;20028;-94
2022/08/31 02:19:30;;;;;;;10.48;3.83;;;;;;;18.68;100.00;99451.84;5099043;28;20094;-93
2022/08/31 02:21:56;;;;;;;10.65;3.85;;;;;;;18.38;100.00;99443.94;5102503;28;20490;-94
2022/08/31 02:24:21;;;;;;;8.70;3.58;;;;;;;18.67;100.00;99449.25;5103227;28;20028;-94
2022/08/31 02:26:47;;;;;;;10.73;3.70;;;;;;;18.43;100.00;99455.22;5097485;28;20028;-95
2022/08/31 02:29:12;;;;;;;8.50;3.70;;;;;;;18.63;100.00;99453.75;5097884;28;20091;-94
2022/08/31 02:31:38;;;;;;;9.20;4.18;;;;;;;18.61;100.00;99450.31;5093551;28;20040;-94
2022/08/31 02:34:04;;;;;;;11.35;3.97;;;;;;;18.51;100.00;99441.81;5097316;28;20395;-94
2022/08/31 02:36:31;;;;;;;10.52;3.72;;;;;;;18.81;100.00;99446.19;5099213;28;20119;-94
2022/08/31 02:38:56;;;;;;;9.30;3.50;;;;;;;18.79;100.00;99440.94;5101592;28;20039;-93
2022/08/31 02:41:23;;;;;;;10.18;3.50;;;;;;;18.86;100.00;99444.25;5092063;28;20027;-93
2022/08/31 02:43:48;;;;;;;10.13;3.33;;;;;;;18.32;100.00;99449.41;5099978;28;20023;-94
2022/08/31 02:46:14;;;;;;;12.45;3.33;;;;;;;18.37;100.00;99449.28;5095523;28;20487;-95
2022/08/31 02:48:40;;;;;;;10.07;3.45;;;;;;;18.70;100.00;99439.44;5100762;28;20322;-94
2022/08/31 02:51:09;;;;;;;11.48;3.63;;;;;;;18.38;100.00;99441.28;5095769;28;20039;-95
2022/08/31 02:53:36;;;;;;;6.97;2.78;;;;;;;18.55;100.00;99446.09;5091305;28;20036;-93
2022/08/31 02:56:04;;;;;;;8.25;2.90;;;;;;;19.03;100.00;99449.88;5099808;28;20032;-92
2022/08/31 02:58:29;;;;;;;9.32;2.95;;;;;;;19.52;100.00;99442.06;5093665;28;20193;-95
2022/08/31 03:00:55;;;;;;;8.98;3.13;;;;;;;18.96;100.00;99447.50;5100641;28;20495;-95
2022/08/31 03:03:21;;;;;;;8.98;3.13;;;;;;;19.41;100.00;99445.09;5094644;28;20035;-92
2022/08/31 03:05:48;;;;;;;7.43;2.90;;;;;;;18.93;100.00;99433.47;5096624;28;20381;-92
2022/08/31 03:08:14;;;;;;;8.75;3.10;;;;;;;19.53;100.00;99438.53;5099563;28;20038;-92
2022/08/31 03:10:40;;;;;;;7.95;3.00;;;;;;;19.44;100.00;99433.53;5100664;28;20020;-92
2022/08/31 03:13:05;;;;;;;7.97;2.83;;;;;;;19.35;100.00;99434.72;5098238;28;20039;-93
2022/08/31 03:15:31;;;;;;;9.05;3.00;;;;;;;18.91;100.00;99434.41;5096359;28;20038;-93
2022/08/31 03:17:57;;;;;;;10.35;3.10;;;;;;;19.67;100.00;99432.75;5098715;28;20040;-93
2022/08/31 03:20:25;;;;;;;9.20;2.90;;;;;;;18.67;100.00;99428.97;5100181;28;20496;-94
2022/08/31 03:22:51;;;;;;;8.95;2.97;;;;;;;18.63;100.00;99432.63;5096878;28;20020;-93
2022/08/31 03:25:18;;;;;;;9.75;2.72;;;;;;;18.86;100.00;99431.03;5101288;28;20023;-95
2022/08/31 03:27:44;;;;;;;10.30;2.95;;;;;;;18.45;100.00;99441.97;5097302;28;20016;-93
2022/08/31 03:30:15;;;;;;;9.00;2.92;;;;;;;18.64;100.00;99433.50;5093890;28;20024;-95
2022/08/31 03:32:41;;;;;;;6.75;2.67;;;;;;;19.04;100.00;99433.13;5090582;28;20031;-94
2022/08/31 03:35:33;;;;;;;10.32;2.95;;;;;;;19.14;100.00;99428.38;5110516;28;20044;-94
2022/08/31 03:38:01;;;;;;;8.50;2.72;;;;;;;18.84;100.00;99440.78;5096408;28;20034;-93
2022/08/31 03:40:26;;;;;;;8.98;2.67;;;;;;;18.92;100.00;99437.00;5099922;28;20173;-94
2022/08/31 03:42:52;;;;;;;7.70;2.60;;;;;;;18.58;100.00;99435.41;5099217;28;20566;-94
2022/08/31 03:45:17;;;;;;;11.98;3.10;;;;;;;18.81;100.00;99438.25;5105001;28;20443;-93
2022/08/31 03:47:43;;;;;;;9.23;3.25;;;;;;;18.13;100.00;99432.38;5108478;28;20035;-94
2022/08/31 03:50:09;;;;;;;7.07;2.97;;;;;;;18.25;100.00;99434.66;5106430;28;20457;-94
2022/08/31 03:52:39;;;;;;;9.70;3.10;;;;;;;18.44;100.00;99432.34;5103587;28;20027;-93
2022/08/31 03:55:09;;;;;;;8.68;3.20;;;;;;;18.33;100.00;99437.94;5100422;28;20055;-93
2022/08/31 03:57:35;;;;;;;8.30;3.08;;;;;;;18.67;100.00;99430.75;5105666;28;20032;-94
2022/08/31 04:00:04;;;;;;;11.50;3.20;;;;;;;18.43;100.00;99441.19;5102716;28;20036;-95
2022/08/31 04:02:29;;;;;;;10.05;3.30;;;;;;;18.46;100.00;99429.66;5101475;28;20032;-93
2022/08/31 04:04:55;;;;;;;9.07;2.55;;;;;;;18.68;100.00;99425.44;5101472;28;20024;-95
2022/08/31 04:07:22;;;;;;;7.80;2.60;;;;;;;18.84;100.00;99424.94;5098700;28;20036;-95
2022/08/31 04:09:49;;;;;;;9.90;2.90;;;;;;;18.40;100.00;99431.56;5101276;28;20028;-95
2022/08/31 04:12:17;;;;;;;9.73;2.88;;;;;;;18.55;100.00;99429.34;5111051;28;20538;-95
2022/08/31 04:14:43;;;;;;;9.93;3.42;;;;;;;18.48;100.00;99430.47;5106621;28;20081;-91
2022/08/31 04:17:10;;;;;;;10.00;2.67;;;;;;;18.32;100.00;99433.56;5098702;28;20023;-92
2022/08/31 04:19:37;;;;;;;9.90;2.70;;;;;;;18.56;100.00;99424.03;5096281;28;20031;-94
2022/08/31 04:22:02;;;;;;;10.85;2.78;;;;;;;18.65;100.00;99422.00;5099304;28;20131;-94
2022/08/31 04:24:29;;;;;;;6.75;2.33;;;;;;;18.66;100.00;99429.88;5102885;28;20118;-94
2022/08/31 04:26:54;;;;;;;10.90;2.65;;;;;;;18.90;100.00;99427.41;5101874;28;20023;-94
2022/08/31 04:29:20;;;;;;;7.88;3.05;;;;;;;18.75;100.00;99421.66;5102788;28;20511;-94
2022/08/31 04:31:46;;;;;;;9.82;2.60;;;;;;;18.64;100.00;99420.31;5095426;28;20032;-94
2022/08/31 04:34:12;;;;;;;8.07;2.80;;;;;;;19.04;100.00;99421.66;5094759;28;20476;-93
2022/08/31 04:36:38;;;;;;;8.85;2.60;;;;;;;18.89;100.00;99429.19;5102500;28;20036;-93
2022/08/31 04:39:07;;;;;;;10.70;2.70;;;;;;;18.66;100.00;99416.66;5098805;28;20580;-93
2022/08/31 04:41:36;;;;;;;9.68;2.67;;;;;;;19.81;100.00;99426.13;5101335;28;20016;-94
2022/08/31 04:44:02;;;;;;;8.68;2.72;;;;;;;19.27;100.00;99426.19;5109944;28;20473;-93
2022/08/31 04:46:30;;;;;;;8.70;2.90;;;;;;;18.36;100.00;99437.00;5105677;28;20040;-93
2022/08/31 04:48:57;;;;;;;10.15;2.90;;;;;;;18.71;100.00;99433.25;5101398;28;20039;-94
2022/08/31 04:51:25;;;;;;;8.55;3.10;;;;;;;19.25;100.00;99433.31;5102073;28;20679;-94
2022/08/31 04:53:52;;;;;;;9.15;3.28;;;;;;;19.17;100.00;99436.22;5100903;28;20044;-92
2022/08/31 04:56:24;;;;;;;7.45;2.83;;;;;;;19.73;100.00;99435.16;5101829;28;20028;-94
2022/08/31 04:58:54;;;;;;;7.82;2.65;;;;;;;18.65;100.00;99435.22;5106712;28;20035;-94
2022/08/31 05:01:23;;;;;;;9.70;3.10;;;;;;;19.58;100.00;99431.28;5102946;28;20066;-94
2022/08/31 05:03:52;;;;;;;10.35;3.10;;;;;;;19.14;100.00;99433.69;5104792;28;20020;-94
2022/08/31 05:06:24;;;;;;;10.77;4.07;;;;;;;19.09;100.00;99430.31;5101174;28;20026;-94
2022/08/31 05:08:54;;;;;;;11.17;3.43;;;;;;;19.47;100.00;99424.63;5102784;28;20027;-92
2022/08/31 05:11:21;;;;;;;9.13;2.70;;;;;;;19.57;100.00;99434.00;5101679;28;20062;-93
2022/08/31 05:13:48;;;;;;;7.25;2.83;;;;;;;19.87;100.00;99441.78;5102968;28;20028;-92
2022/08/31 05:16:15;;;;;;;9.85;3.40;;;;;;;19.58;100.00;99446.28;5105006;28;20498;-92
2022/08/31 05:18:43;;;;;;;9.80;3.60;;;;;;;19.07;100.00;99442.72;5111682;28;20103;-93
2022/08/31 05:21:12;;;;;;;8.65;3.55;;;;;;;19.36;100.00;99446.16;5095159;28;20032;-92
2022/08/31 05:23:39;;;;;;;11.70;3.85;;;;;;;20.34;100.00;99452.38;5104468;28;20188;-96
2022/08/31 05:26:05;;;;;;;12.18;3.78;;;;;;;20.05;100.00;99449.03;5097008;28;20024;-93
2022/08/31 05:28:32;;;;;;;12.30;4.40;;;;;;;19.35;100.00;99453.25;5104051;28;20039;-93
2022/08/31 05:30:59;;;;;;;8.10;3.38;;;;;;;18.18;100.00;99455.09;5108781;28;20051;-93
2022/08/31 05:33:25;;;;;;;10.18;4.05;;;;;;;20.16;100.00;99458.38;5103422;28;20041;-92
2022/08/31 05:35:51;;;;;;;10.32;3.90;;;;;;;17.65;100.00;99449.53;5109174;28;20027;-96
2022/08/31 05:38:17;;;;;;;10.77;3.85;;;;;;;17.23;100.00;99445.34;5106924;28;20061;-94
2022/08/31 05:40:42;;;;;;;10.75;3.92;;;;;;;17.34;100.00;99452.94;5106801;28;20365;-92
2022/08/31 05:43:08;;;;;;;10.48;4.28;;;;;;;17.57;100.00;99460.28;5108165;28;20031;-95
2022/08/31 05:45:33;;;;;;;10.13;4.63;;;;;;;17.35;100.00;99455.53;5104809;28;20113;-93
2022/08/31 05:47:59;;;;;;;12.82;4.07;;;;;;;17.31;100.00;99461.78;5120217;27;20035;-95
2022/08/31 05:50:24;;;;;;;11.52;4.05;;;;;;;17.38;100.00;99463.41;5098168;28;20347;-95
2022/08/31 05:52:53;;;;;;;12.52;4.20;;;;;;;17.59;100.00;99461.09;5107651;28;20740;-95
2022/08/31 05:55:21;;;;;;;10.27;4.05;;;;;;;18.22;100.00;99469.09;5103590;28;20048;-93
2022/08/31 05:57:47;;;;;;;12.20;4.03;;;;;;;17.35;100.00;99457.31;5097441;28;20427;-95
2022/08/31 06:00:13;;;;;;;11.38;3.85;;;;;;;17.63;100.00;99464.53;5105442;28;20031;-93
2022/08/31 06:02:38;;;;;;;10.55;4.60;;;;;;;18.12;100.00;99464.97;5104770;28;20032;-94
2022/08/31 06:05:05;;;;;;;10.80;4.10;;;;;;;17.82;100.00;99456.97;5100168;28;20793;-96
2022/08/31 06:07:33;;;;;;;10.65;4.13;;;;;;;17.75;100.00;99466.84;5100374;28;20114;-95
2022/08/31 06:09:59;;;;;;;11.43;4.43;;;;;;;17.70;100.00;99460.81;5104116;28;20024;-95
2022/08/31 06:12:26;;;;;;;12.10;3.83;;;;;;;17.72;100.00;99462.50;5107379;28;20038;-96
2022/08/31 06:14:52;;;;;;;10.35;3.97;;;;;;;17.74;100.00;99465.09;5102974;28;20036;-92
2022/08/31 06:17:18;;;;;;;10.93;4.55;;;;;;;17.32;100.00;99460.03;5103781;28;20058;-95
2022/08/31 06:19:47;;;;;;;10.77;4.40;;;;;;;17.97;100.00;99459.22;5103602;28;20463;-94
2022/08/31 06:22:12;;;;;;;10.02;3.75;;;;;;;17.93;100.00;99465.50;5102471;28;20435;-94
2022/08/31 06:24:38;;;;;;;15.43;4.55;;;;;;;18.33;100.00;99469.63;5100573;28;20526;-96
2022/08/31 06:27:04;;;;;;;13.82;5.05;;;;;;;18.53;100.00;99476.09;5094737;28;20032;-94
2022/08/31 06:29:32;;;;;;;13.32;4.45;;;;;;;18.25;100.00;99475.13;5092373;28;20483;-95
2022/08/31 06:31:59;;;;;;;11.50;4.88;;;;;;;17.33;100.00;99470.56;5106975;28;20042;-93
2022/08/31 06:34:27;;;;;;;15.35;5.13;;;;;;;17.92;100.00;99466.41;5091746;28;20055;-95
2022/08/31 06:36:55;;;;;;;12.68;4.82;;;;;;;17.93;100.00;99469.91;5098192;28;20031;-95
2022/08/31 06:39:31;;;;;;;11.40;4.65;;;;;;;18.30;100.00;99480.28;5107447;28;20039;-96
2022/08/31 06:44:25;;;;;;;11.82;5.00;;;;;;;17.89;100.00;99475.22;5047481;28;21049;-96
2022/08/31 06:46:51;;;;;;;15.43;5.35;;;;;;;17.65;100.00;99475.91;5048919;28;20025;-95
2022/08/31 06:49:19;;;;;;;13.32;4.82;;;;;;;18.02;100.00;99481.09;5044232;28;20113;-95
2022/08/31 06:51:44;;;;;;;12.38;5.03;;;;;;;18.04;100.00;99476.63;5048112;28;20033;-95
2022/08/31 06:54:13;;;;;;;11.82;5.53;;;;;;;18.29;100.00;99477.66;5047484;28;20029;-96
2022/08/31 06:56:39;;;;;;;12.55;5.30;;;;;;;18.38;100.00;99480.06;5049151;28;20068;-95
2022/08/31 06:59:06;;;;;;;11.73;5.25;;;;;;;17.97;100.00;99482.09;5042690;28;20384;-95
2022/08/31 07:01:35;;;;;;;14.77;6.05;;;;;;;18.45;100.00;99489.53;5047936;28;20092;-95
2022/08/31 07:04:04;;;;;;;13.98;6.25;;;;;;;18.67;100.00;99488.88;5047983;28;20017;-95
2022/08/31 07:06:33;;;;;;;12.93;6.35;;;;;;;19.02;100.00;99493.09;5065131;28;20043;-95
2022/08/31 07:09:02;;;;;;;16.25;6.20;;;;;;;19.73;100.00;99496.03;5047875;28;20106;-94
2022/08/31 07:11:42;;;;;;;13.13;5.88;;;;;;;21.04;100.00;99500.06;5051006;28;20090;-96
2022/08/31 07:14:11;;;;;;;13.30;5.18;;;;;;;21.22;100.00;99494.00;5047503;28;20325;-95
2022/08/31 07:16:37;;;;;;;13.80;5.57;;;;;;;21.16;100.00;99498.72;5047311;28;20025;-95
2022/08/31 07:19:05;;;;;;;14.93;5.72;;;;;;;20.10;100.00;99497.41;5053169;28;20044;-96
2022/08/31 07:21:54;;;;;;;16.25;5.07;;;;;;;20.19;100.00;99498.84;5046790;28;20043;-96
2022/08/31 07:24:24;;;;;;;16.13;5.80;;;;;;;19.77;100.00;99502.09;5054378;28;20139;-95
2022/08/31 07:26:53;;;;;;;14.88;5.80;;;;;;;20.26;100.00;99496.84;5041240;22;20128;-92
2022/08/31 07:29:20;;;;;;;12.60;4.70;;;;;;;20.34;100.00;99504.50;5021402;28;20886;-92
2022/08/31 07:31:47;;;;;;;13.10;5.55;;;;;;;19.67;100.00;99506.84;5024029;28;20486;-95
2022/08/31 07:34:18;;;;;;;15.95;6.18;;;;;;;19.59;100.00;99509.72;5024229;28;20036;-95
2022/08/31 07:42:18;;;;;;;17.92;5.90;;;;;;;19.48;100.00;99500.44;5023785;28;20084;-92
2022/08/31 07:44:51;;;;;;;21.80;5.50;;;;;;;19.98;100.00;99500.50;5024291;28;20056;-92
2022/08/31 07:47:19;;;;;;;12.15;5.95;;;;;;;19.93;100.00;99499.78;5021870;28;20086;-91
2022/08/31 07:49:50;;;;;;;13.88;6.28;;;;;;;19.98;100.00;99497.84;5024792;28;20041;-92
2022/08/31 07:52:23;;;;;;;15.32;6.18;;;;;;;20.31;100.00;99497.53;5018217;28;20030;-94
2022/08/31 07:54:51;;;;;;;15.07;6.00;;;;;;;20.49;100.00;99495.97;5024519;28;20029;-93
2022/08/31 07:57:17;;;;;;;11.32;5.05;;;;;;;20.00;100.00;99503.06;5023134;28;20030;-92
2022/08/31 07:59:46;;;;;;;13.23;5.47;;;;;;;19.80;100.00;99498.50;5022662;28;20056;-93
2022/08/31 08:02:14;;;;;;;12.20;5.95;;;;;;;20.02;100.00;99498.59;5025249;28;20087;-93
2022/08/31 08:04:41;;;;;;;11.88;5.10;;;;;;;20.13;100.00;99504.38;5025267;28;20037;-93
2022/08/31 08:07:08;;;;;;;13.10;5.40;;;;;;;21.19;100.00;99503.91;5026758;28;20021;-91
2022/08/31 08:09:33;;;;;;;12.32;5.78;;;;;;;21.28;100.00;99503.50;5024134;28;20040;-93
2022/08/31 08:12:05;;;;;;;12.75;4.95;;;;;;;20.91;100.00;99500.56;5026564;28;20458;-93
2022/08/31 08:14:36;;;;;;;15.57;5.65;;;;;;;20.62;100.00;99507.81;5022339;28;20103;-92
2022/08/31 08:17:04;;;;;;;13.05;4.55;;;;;;;20.24;100.00;99504.84;5021837;28;20033;-93
2022/08/31 08:19:32;;;;;;;13.90;5.03;;;;;;;20.33;100.00;99503.63;5019673;28;20358;-93
2022/08/31 08:22:00;;;;;;;12.23;5.15;;;;;;;20.43;100.00;99505.03;5026568;28;20025;-94
2022/08/31 08:24:28;;;;;;;12.13;5.22;;;;;;;21.22;100.00;99509.94;5026726;28;20425;-92
2022/08/31 08:26:53;;;;;;;12.15;5.90;;;;;;;20.97;100.00;99512.72;5028840;28;20675;-93
2022/08/31 08:29:22;;;;;;;11.95;5.43;;;;;;;22.18;100.00;99508.53;5026203;28;20172;-93
2022/08/31 08:31:53;;;;;;;14.95;5.13;;;;;;;22.70;100.00;99513.31;5020479;28;20779;-93
2022/08/31 08:34:23;;;;;;;11.13;5.03;;;;;;;22.52;100.00;99515.03;5026386;28;20079;-93
2022/08/31 08:36:52;;;;;;;13.18;5.05;;;;;;;22.70;100.00;99513.31;5028791;28;20048;-92
2022/08/31 08:39:18;;;;;;;15.43;5.32;;;;;;;22.14;100.00;99505.19;5027935;28;20385;-93
2022/08/31 08:41:46;;;;;;;14.25;5.55;;;;;;;21.02;100.00;99512.53;5035835;28;20125;-95
2022/08/31 08:44:16;;;;;;;11.75;4.82;;;;;;;21.34;100.00;99510.38;5041068;28;20975;-93
2022/08/31 08:47:28;;;;;;;12.55;4.57;;;;;;;21.80;100.00;99509.31;5038276;28;20034;-94
2022/08/31 08:50:00;;;;;;;10.10;5.03;;;;;;;21.09;100.00;99506.91;5028837;28;20039;-92
2022/08/31 08:52:30;;;;;;;10.07;4.63;;;;;;;20.55;100.00;99503.69;5021026;28;20025;-92
2022/08/31 08:55:01;;;;;;;13.35;4.63;;;;;;;22.33;100.00;99509.66;5022049;28;20029;-94
2022/08/31 08:57:33;;;;;;;12.77;4.32;;;;;;;22.53;100.00;99510.56;5016347;28;20057;-93
2022/08/31 09:00:08;;;;;;;10.77;3.78;;;;;;;22.83;100.00;99511.78;5018699;28;20247;-93
2022/08/31 09:02:48;;;;;;;14.20;3.40;;;;;;;22.49;100.00;99509.84;5027696;28;20037;-92
2022/08/31 09:05:34;;;;;;;9.32;3.40;;;;;;;22.34;100.00;99508.75;5024271;28;20021;-94
2022/08/31 09:08:14;;;;;;;15.68;3.47;;;;;;;22.61;100.00;99509.25;5026052;28;20057;-93
2022/08/31 09:10:44;;;;;;;9.77;3.00;;;;;;;22.17;100.00;99504.16;5045971;28;20131;-93
2022/08/31 09:13:22;;;;;;;7.13;2.90;;;;;;;23.28;100.00;99501.66;5029053;28;20029;-94
2022/08/31 09:15:57;;;;;;;10.25;2.95;;;;;;;23.02;100.00;99498.47;5024070;28;20022;-93
2022/08/31 09:18:51;;;;;;;10.43;2.83;;;;;;;23.58;100.00;99497.56;5025364;28;20777;-94
2022/08/31 09:21:29;;;;;;;7.90;2.45;;;;;;;22.59;100.00;99500.50;5018957;28;20038;-94
2022/08/31 09:24:23;;;;;;;9.38;3.05;;;;;;;21.44;100.00;99499.28;5028827;28;20608;-92
2022/08/31 09:26:55;;;;;;;;;;;;;;;22.33;100.00;99499.91;5026163;28;20490;-94
2022/08/31 09:29:25;;;;;;;8.25;2.05;;;;;;;22.14;100.00;99494.56;5035104;28;19925;-95
2022/08/31 09:32:06;;;;;;;12.05;3.15;;;;;;;22.47;100.00;99491.31;5039180;28;20085;-96
2022/08/31 09:34:51;;;;;;;10.07;2.53;;;;;;;22.12;100.00;99496.41;5041425;28;20052;-96
2022/08/31 09:37:39;;;;;;;10.68;2.58;;;;;;;23.28;100.00;99498.16;5041792;28;20067;-95
2022/08/31 09:40:14;;;;;;;10.07;2.70;;;;;;;23.49;100.00;99491.75;5031857;28;20023;-94
2022/08/31 09:42:43;;;;;;;9.40;2.97;;;;;;;23.34;100.00;99493.38;5034585;28;20041;-96
2022/08/31 09:45:28;;;;;;;10.23;2.90;;;;;;;23.41;100.00;99485.97;5037544;28;20032;-94
2022/08/31 09:47:59;;;;;;;14.88;2.83;;;;;;;23.39;100.00;99489.63;5037604;28;20017;-95
2022/08/31 09:50:43;;;;;;;7.30;2.45;;;;;;;22.75;100.00;99495.31;5030909;28;20503;-94
2022/08/31 09:56:20;;;;;;;8.32;1.85;;;;;;;23.71;100.00;99487.13;5038468;28;20061;-96
2022/08/31 09:58:47;;;;;;;9.32;2.03;;;;;;;23.42;100.00;99482.34;5034057;28;20074;-95
2022/08/31 10:01:27;;;;;;;10.82;2.17;;;;;;;22.56;100.00;99495.34;5031500;28;20080;-94
2022/08/31 10:04:17;;;;;;;8.18;1.80;;;;;;;22.94;100.00;99489.13;5027876;28;20028;-96
2022/08/31 10:07:00;;;;;;;6.72;2.08;;;;;;;23.23;100.00;99487.75;5039843;28;20504;-95
2022/08/31 10:09:47;;;;;;;5.63;1.75;;;;;;;23.92;100.00;99477.19;5036552;28;20045;-96
2022/08/31 10:15:02;;;;;;;9.35;1.90;;;;;;;24.48;100.00;99478.59;5004994;28;20061;-92
2022/08/31 10:17:41;;;;;;;10.65;2.10;;;;;;;24.97;100.00;99477.69;5005427;28;20030;-91
2022/08/31 10:20:17;;;;;;;8.00;1.90;;;;;;;25.09;100.00;99478.78;5003802;28;20060;-93
2022/08/31 10:22:49;;;;;;;6.82;2.05;;;;;;;25.35;100.00;99469.28;5006540;28;20429;-93
2022/08/31 10:25:22;;;;;;;7.63;1.77;;;;;;;25.60;100.00;99470.50;5007920;28;20028;-92
2022/08/31 10:28:13;;;;;;;;;;;;;;;26.91;100.00;99480.25;5009887;28;20033;-93
2022/08/31 10:30:58;;;;;;;8.82;1.85;;;;;;;24.69;100.00;99473.91;5005633;28;20389;-91
2022/08/31 10:35:02;;;;;;;8.38;1.60;;;;;;;23.11;100.00;99469.69;4995980;28;20021;-91
2022/08/31 10:36:31;;;;;;;8.25;1.85;;;;;;;25.00;100.00;99460.66;5006987;28;20088;-92
2022/08/31 10:38:59;;;;;;;7.05;1.60;;;;;;;24.43;100.00;99464.66;5006134;28;20033;-92
2022/08/31 10:41:31;;;;;;;7.78;1.85;;;;;;;23.73;100.00;99464.81;5005321;28;20037;-92
2022/08/31 10:44:16;;;;;;;9.85;1.60;;;;;;;23.52;100.00;99458.78;4988626;28;20049;-92
2022/08/31 10:46:43;;;;;;;10.43;1.73;;;;;;;23.99;100.00;99467.91;4998688;28;20034;-93
2022/08/31 10:49:10;;;;;;;8.80;2.00;;;;;;;24.65;100.00;99460.84;5012570;28;20485;-91
2022/08/31 10:51:48;;;;;;;8.95;1.63;;;;;;;24.60;100.00;99462.88;4998672;28;20072;-91
2022/08/31 10:54:34;;;;;;;9.18;1.75;;;;;;;24.37;100.00;99468.53;5005894;28;20485;-93
2022/08/31 10:57:18;;;;;;;7.03;1.67;;;;;;;24.01;100.00;99466.06;4986203;28;20522;-92
2022/08/31 11:00:07;;;;;;;6.57;1.67;;;;;;;24.10;100.00;99464.69;5004776;28;20049;-92
2022/08/31 11:02:57;;;;;;;9.05;1.90;;;;;;;24.84;100.00;99458.84;5005817;28;20735;-91
2022/08/31 11:05:44;;;;;;;6.78;1.83;;;;;;;23.33;100.00;99462.38;5005420;28;20029;-93
2022/08/31 11:08:56;;;;;;;10.68;2.25;;;;;;;25.33;100.00;99457.84;4994376;28;20046;-92
2022/08/31 11:11:49;;;;;;;7.88;2.00;;;;;;;24.92;100.00;99449.56;5007927;28;20053;-93
2022/08/31 11:14:25;;;;;;;;;;;;;;;23.26;100.00;99441.50;4998183;28;20124;-92
2022/08/31 11:17:22;;;;;;;6.40;1.75;;;;;;;24.22;100.00;99445.38;5000862;28;19917;-92
2022/08/31 11:19:54;;;;;;;7.97;1.65;;;;;;;24.04;100.00;99433.91;5016196;28;20447;-92
2022/08/31 11:22:55;;;;;;;6.43;1.40;;;;;;;23.40;100.00;99440.78;5010278;28;20086;-94
2022/08/31 11:25:59;;;;;;;13.48;1.58;;;;;;;23.93;100.00;99446.94;5007059;28;20025;-92
2022/08/31 11:28:37;;;;;;;7.75;1.77;;;;;;;24.21;100.00;99440.97;4999318;28;20498;-94
2022/08/31 11:31:22;;;;;;;7.45;1.50;;;;;;;24.25;100.00;99447.03;5003915;28;20559;-91
2022/08/31 11:33:56;;;;;;;7.38;1.30;;;;;;;23.21;100.00;99440.84;5006156;28;20029;-93
2022/08/31 11:36:50;;;;;;;7.10;1.60;;;;;;;23.39;100.00;99439.06;4987928;28;20117;-93
2022/08/31 11:39:35;;;;;;;8.68;1.75;;;;;;;23.72;100.00;99431.13;5004003;28;20069;-94
2022/08/31 11:42:25;;;;;;;6.80;1.45;;;;;;;23.65;100.00;99427.06;5010411;28;20024;-93
2022/08/31 11:45:27;;;;;;;11.00;1.38;;;;;;;23.51;99.55;99431.28;4997668;28;20077;-92
2022/08/31 11:47:53;;;;;;;9.23;1.70;;;;;;;24.03;99.40;99434.84;5005981;28;20029;-94
2022/08/31 11:50:41;;;;;;;7.03;1.63;;;;;;;24.72;94.76;99430.22;5006867;28;20029;-93
2022/08/31 11:53:42;;;;;;;4.97;1.30;;;;;;;26.19;95.27;99427.75;5007802;28;20029;-93
2022/08/31 11:56:12;;;;;;;6.97;1.58;;;;;;;25.07;91.62;99429.97;5002348;28;20030;-92